createdAt,value
2019-01-31T00:02:04.357Z,96.60
2019-01-31T00:04:50.788Z,96.70
2019-01-31T00:07:24.108Z,96.10
2019-01-31T00:09:58.455Z,95.70
2019-01-31T00:12:46.696Z,95.90
2019-01-31T00:15:17.723Z,96.00
2019-01-31T00:17:51.725Z,96.30
2019-01-31T00:20:23.032Z,96.10
2019-01-31T00:23:19.220Z,96.00
2019-01-31T00:25:53.833Z,96.20
2019-01-31T00:28:32.108Z,96.40
2019-01-31T00:31:22.086Z,96.60
2019-01-31T00:34:13.948Z,96.70
2019-01-31T00:37:16.834Z,96.40
2019-01-31T00:39:56.957Z,96.30
2019-01-31T00:42:34.150Z,96.90
2019-01-31T00:45:24.554Z,96.50
2019-01-31T00:48:08.717Z,96.30
2019-01-31T00:50:51.103Z,96.90
2019-01-31T00:53:24.336Z,97.00
2019-01-31T00:56:05.505Z,97.00
2019-01-31T00:58:38.164Z,97.20
2019-01-31T01:01:26.958Z,97.20
2019-01-31T01:04:23.240Z,97.00
2019-01-31T01:06:55.978Z,96.90
2019-01-31T01:09:28.725Z,96.90
2019-01-31T01:11:59.885Z,97.10
2019-01-31T01:14:47.000Z,97.20
2019-01-31T01:17:24.436Z,97.30
2019-01-31T01:20:14.368Z,97.20
2019-01-31T01:22:50.270Z,97.30
2019-01-31T01:25:40.745Z,97.30
2019-01-31T01:28:30.773Z,97.50
2019-01-31T01:31:36.170Z,97.50
2019-01-31T01:34:39.052Z,97.60
2019-01-31T01:37:15.216Z,98.00
2019-01-31T01:40:00.009Z,97.90
2019-01-31T01:42:44.749Z,97.80
2019-01-31T01:45:35.032Z,97.80
2019-01-31T01:48:37.257Z,97.90
2019-01-31T01:51:27.221Z,97.90
2019-01-31T01:54:09.193Z,98.00
2019-01-31T01:56:52.232Z,98.20
2019-01-31T01:59:25.905Z,98.10
2019-01-31T02:02:02.924Z,98.00
2019-01-31T02:04:52.856Z,98.10
2019-01-31T02:07:24.572Z,98.20
2019-01-31T02:10:16.833Z,98.50
2019-01-31T02:13:03.042Z,98.50
2019-01-31T02:15:44.535Z,98.50
2019-01-31T02:18:24.512Z,98.40
2019-01-31T02:21:20.329Z,98.30
2019-01-31T02:23:57.676Z,98.30
2019-01-31T02:26:47.604Z,98.40
2019-01-31T02:29:28.816Z,98.80
2019-01-31T02:32:31.450Z,99.40
2019-01-31T02:35:09.646Z,99.70
2019-01-31T02:37:58.798Z,99.30
2019-01-31T02:40:46.000Z,99.60
2019-01-31T02:43:22.368Z,99.30
2019-01-31T02:46:10.313Z,98.90
2019-01-31T02:48:46.770Z,98.70
2019-01-31T02:51:33.981Z,99.00
2019-01-31T02:54:08.068Z,99.30
2019-01-31T02:56:58.010Z,99.40
2019-01-31T02:59:29.769Z,99.40
2019-01-31T03:02:09.077Z,99.20
2019-01-31T03:04:47.543Z,99.00
2019-01-31T03:07:31.440Z,99.00
2019-01-31T03:10:18.566Z,99.30
2019-01-31T03:12:59.753Z,99.30
2019-01-31T03:15:49.657Z,99.00
2019-01-31T03:18:29.751Z,98.80
2019-01-31T03:21:07.939Z,99.10
2019-01-31T03:23:49.776Z,99.00
2019-01-31T03:26:37.232Z,98.70
2019-01-31T03:29:20.408Z,98.50
2019-01-31T03:32:13.965Z,98.80
2019-01-31T03:35:07.165Z,98.60
2019-01-31T03:37:50.510Z,98.40
2019-01-31T03:40:28.047Z,98.40
2019-01-31T03:43:33.502Z,98.40
2019-01-31T03:46:32.528Z,98.70
2019-01-31T03:49:05.737Z,98.80
2019-01-31T03:51:40.864Z,98.70
2019-01-31T03:54:27.052Z,98.70
2019-01-31T03:57:14.165Z,98.60
2019-01-31T03:59:48.298Z,98.50
2019-01-31T04:02:39.327Z,98.40
2019-01-31T04:05:30.966Z,98.40
2019-01-31T04:07:58.920Z,98.30
2019-01-31T04:10:26.905Z,98.20
2019-01-31T04:12:54.881Z,98.10
2019-01-31T04:15:23.097Z,98.30
2019-01-31T04:17:51.025Z,98.40
2019-01-31T04:20:18.998Z,98.30
2019-01-31T04:22:46.877Z,98.40
2019-01-31T04:25:15.408Z,98.50
2019-01-31T04:27:43.685Z,98.70
2019-01-31T04:30:13.313Z,98.70
2019-01-31T04:32:41.265Z,98.50
2019-01-31T04:35:09.530Z,98.40
2019-01-31T04:37:37.431Z,98.50
2019-01-31T04:40:06.558Z,98.70
2019-01-31T04:42:34.435Z,98.60
2019-01-31T04:45:02.604Z,98.50
2019-01-31T04:47:30.564Z,98.80
2019-01-31T04:49:58.542Z,98.80
2019-01-31T04:52:26.428Z,98.80
2019-01-31T04:54:54.319Z,98.60
2019-01-31T04:57:22.202Z,98.50
2019-01-31T04:59:55.821Z,98.30
2019-01-31T05:02:23.961Z,98.30
2019-01-31T05:04:51.965Z,98.20
2019-01-31T05:07:20.268Z,97.90
2019-01-31T05:09:48.424Z,98.00
2019-01-31T05:12:16.299Z,98.10
2019-01-31T05:14:44.553Z,98.00
2019-01-31T05:17:12.453Z,98.00
2019-01-31T05:19:40.379Z,98.00
2019-01-31T05:22:08.305Z,98.40
2019-01-31T05:24:36.273Z,98.50
2019-01-31T05:27:04.540Z,98.60
2019-01-31T05:29:32.604Z,98.60
2019-01-31T05:32:00.518Z,98.90
2019-01-31T05:34:28.865Z,99.20
2019-01-31T05:36:56.862Z,99.60
2019-01-31T05:39:25.094Z,99.80
2019-01-31T05:41:52.998Z,99.90
2019-01-31T05:44:21.229Z,99.90
2019-01-31T05:46:49.520Z,99.80
2019-01-31T05:49:17.685Z,99.70
2019-01-31T05:51:45.765Z,99.70
2019-01-31T05:54:13.771Z,99.60
2019-01-31T05:56:41.808Z,99.50
2019-01-31T05:59:10.102Z,99.40
2019-01-31T06:01:38.078Z,99.20
2019-01-31T06:04:06.144Z,99.20
2019-01-31T06:06:34.126Z,99.20
2019-01-31T06:09:03.821Z,99.20
2019-01-31T06:11:32.053Z,99.20
2019-01-31T06:13:59.967Z,99.20
2019-01-31T06:16:27.966Z,99.20
2019-01-31T06:18:55.904Z,99.20
2019-01-31T06:21:23.821Z,99.20
2019-01-31T06:23:51.780Z,99.20
2019-01-31T06:26:19.752Z,99.20
2019-01-31T06:28:47.980Z,99.20
2019-01-31T06:31:15.992Z,99.20
2019-01-31T06:33:43.964Z,99.30
2019-01-31T06:36:11.898Z,99.20
2019-01-31T06:38:39.818Z,99.10
2019-01-31T06:41:18.357Z,99.10
2019-01-31T06:43:38.440Z,99.10
2019-01-31T06:46:06.605Z,99.10
2019-01-31T06:48:34.491Z,99.00
2019-01-31T06:51:02.395Z,99.10
2019-01-31T06:53:30.560Z,99.10
2019-01-31T06:55:58.457Z,99.00
2019-01-31T06:58:26.404Z,98.90
2019-01-31T07:00:54.328Z,98.80
2019-01-31T07:03:22.427Z,98.60
2019-01-31T07:05:50.399Z,98.70
2019-01-31T07:08:18.385Z,98.70
2019-01-31T07:10:46.530Z,99.10
2019-01-31T07:13:14.473Z,98.90
2019-01-31T07:15:42.376Z,98.90
2019-01-31T07:18:10.267Z,99.00
2019-01-31T07:20:38.152Z,99.10
2019-01-31T07:23:06.403Z,99.00
2019-01-31T07:25:34.358Z,99.00
2019-01-31T07:28:02.289Z,98.90
2019-01-31T07:30:30.566Z,98.70
2019-01-31T07:32:58.443Z,98.80
2019-01-31T07:35:26.665Z,98.70
2019-01-31T07:37:54.824Z,98.70
2019-01-31T07:40:22.882Z,98.70
2019-01-31T07:42:54.293Z,98.80
2019-01-31T07:45:23.399Z,98.60
2019-01-31T07:47:51.428Z,98.60
2019-01-31T07:50:19.576Z,98.80
2019-01-31T07:52:47.528Z,98.80
2019-01-31T07:55:15.538Z,98.90
2019-01-31T07:57:43.737Z,98.80
2019-01-31T08:00:12.838Z,98.60
2019-01-31T08:02:40.761Z,98.40
2019-01-31T08:05:10.120Z,98.30
2019-01-31T08:07:38.096Z,98.10
2019-01-31T08:10:07.720Z,98.50
2019-01-31T08:12:35.614Z,97.70
2019-01-31T08:15:04.096Z,97.90
2019-01-31T08:17:32.088Z,98.10
2019-01-31T08:19:59.977Z,98.50
2019-01-31T08:22:28.514Z,98.50
2019-01-31T08:24:56.410Z,98.40
2019-01-31T08:27:24.501Z,98.40
2019-01-31T08:29:52.488Z,98.30
2019-01-31T08:32:20.405Z,98.30
2019-01-31T08:34:48.444Z,98.10
2019-01-31T08:37:16.438Z,98.00
2019-01-31T08:39:44.320Z,98.00
2019-01-31T08:42:12.212Z,97.50
2019-01-31T08:44:40.411Z,97.70
2019-01-31T08:47:08.274Z,97.50
2019-01-31T08:49:36.276Z,97.60
2019-01-31T08:52:04.550Z,97.70
2019-01-31T08:54:32.715Z,97.30
2019-01-31T08:57:00.713Z,96.40
2019-01-31T08:59:28.698Z,96.50
2019-01-31T09:01:56.629Z,96.40
2019-01-31T09:04:24.772Z,96.00
2019-01-31T09:06:52.929Z,95.80
2019-01-31T09:09:20.807Z,96.00
2019-01-31T09:11:48.692Z,94.80
2019-01-31T09:14:16.829Z,94.90
2019-01-31T09:16:50.846Z,94.30
2019-01-31T09:19:18.925Z,94.00
2019-01-31T09:22:04.315Z,93.40
2019-01-31T09:25:00.660Z,93.40
2019-01-31T09:27:53.861Z,92.90
2019-01-31T09:30:50.061Z,92.30
2019-01-31T09:33:37.168Z,91.80
2019-01-31T09:36:23.052Z,90.50
2019-01-31T09:39:10.214Z,90.50
2019-01-31T09:41:47.466Z,89.40
2019-01-31T09:44:25.068Z,88.90
2019-01-31T09:47:18.207Z,88.50
2019-01-31T09:49:54.764Z,87.30
2019-01-31T09:52:45.037Z,88.20
2019-01-31T09:55:32.177Z,85.30
2019-01-31T09:58:07.671Z,82.20
2019-01-31T10:01:13.569Z,76.80
2019-01-31T10:03:47.537Z,76.50
2019-01-31T10:06:23.807Z,75.20
2019-01-31T10:09:15.960Z,77.30
2019-01-31T10:12:02.171Z,75.50
2019-01-31T10:14:42.229Z,73.20
2019-01-31T10:17:28.375Z,72.80
2019-01-31T10:20:11.009Z,70.20
2019-01-31T10:23:03.908Z,68.00
2019-01-31T10:25:49.956Z,68.60
2019-01-31T10:28:28.726Z,70.00
2019-01-31T10:31:19.133Z,72.20
2019-01-31T10:33:54.597Z,72.70
2019-01-31T10:36:25.231Z,74.20
2019-01-31T10:38:57.136Z,73.30
2019-01-31T10:41:32.429Z,73.50
2019-01-31T10:44:09.258Z,74.00
2019-01-31T10:46:42.880Z,74.30
2019-01-31T10:49:24.045Z,76.00
2019-01-31T10:52:09.704Z,76.60
2019-01-31T10:55:12.367Z,76.50
2019-01-31T10:58:02.793Z,77.70
2019-01-31T11:00:44.263Z,78.30
2019-01-31T11:03:16.140Z,78.30
2019-01-31T11:05:48.711Z,80.10
2019-01-31T11:08:51.004Z,80.10
2019-01-31T11:11:34.498Z,80.00
2019-01-31T11:14:20.305Z,79.70
2019-01-31T11:17:06.547Z,80.50
2019-01-31T11:20:02.941Z,82.20
2019-01-31T11:22:37.284Z,83.30
2019-01-31T11:25:23.634Z,82.60
2019-01-31T11:28:02.468Z,83.30
2019-01-31T11:30:37.988Z,84.00
2019-01-31T11:33:23.766Z,82.60
2019-01-31T11:36:13.926Z,80.50
2019-01-31T11:39:11.642Z,79.10
2019-01-31T11:41:46.426Z,75.20
2019-01-31T11:44:39.659Z,71.10
2019-01-31T11:47:21.959Z,67.90
2019-01-31T11:50:15.431Z,67.60
2019-01-31T11:52:56.352Z,66.90
2019-01-31T11:55:30.047Z,69.30
2019-01-31T11:58:01.741Z,68.10
2019-01-31T12:00:29.946Z,68.80
2019-01-31T12:02:58.184Z,70.80
2019-01-31T12:05:26.687Z,72.90
2019-01-31T12:07:54.629Z,74.50
2019-01-31T12:10:22.755Z,75.20
2019-01-31T12:12:50.789Z,75.60
2019-01-31T12:15:18.739Z,75.40
2019-01-31T12:17:46.708Z,74.40
2019-01-31T12:20:14.725Z,73.90
2019-01-31T12:22:43.085Z,73.90
2019-01-31T12:25:11.235Z,73.10
2019-01-31T12:27:39.450Z,72.00
2019-01-31T12:30:10.453Z,71.50
2019-01-31T12:32:38.496Z,70.10
2019-01-31T12:35:06.449Z,69.60
2019-01-31T12:37:34.396Z,68.90
2019-01-31T12:40:02.392Z,69.40
2019-01-31T12:42:30.281Z,70.00
2019-01-31T12:44:58.177Z,70.80
2019-01-31T12:47:26.938Z,71.60
2019-01-31T12:49:55.144Z,72.10
2019-01-31T12:52:23.639Z,71.90
2019-01-31T12:54:51.523Z,71.10
2019-01-31T12:57:19.948Z,71.70
2019-01-31T12:59:47.975Z,72.80
2019-01-31T13:02:16.229Z,73.70
2019-01-31T13:04:44.403Z,74.50
2019-01-31T13:07:12.669Z,75.20
2019-01-31T13:09:40.622Z,74.20
2019-01-31T13:12:08.660Z,72.60
2019-01-31T13:14:36.658Z,72.50
2019-01-31T13:17:06.273Z,71.20
2019-01-31T13:19:34.308Z,69.50
2019-01-31T13:22:02.500Z,69.00
2019-01-31T13:24:30.749Z,68.00
2019-01-31T13:26:58.953Z,68.40
2019-01-31T13:29:27.010Z,69.20
2019-01-31T13:31:54.887Z,70.30
2019-01-31T13:34:22.833Z,71.30
2019-01-31T13:36:50.833Z,72.20
2019-01-31T13:39:19.836Z,73.40
2019-01-31T13:41:48.120Z,73.60
2019-01-31T13:44:16.225Z,74.70
2019-01-31T13:46:44.231Z,75.30
2019-01-31T13:49:12.232Z,75.60
2019-01-31T13:51:40.205Z,75.50
2019-01-31T13:54:08.212Z,74.40
2019-01-31T13:56:45.164Z,71.80
2019-01-31T13:59:06.156Z,70.30
2019-01-31T14:01:34.118Z,69.80
2019-01-31T14:04:02.594Z,69.70
2019-01-31T14:06:31.006Z,70.40
2019-01-31T14:08:59.212Z,70.20
2019-01-31T14:11:27.166Z,70.90
2019-01-31T14:13:55.392Z,71.70
2019-01-31T14:16:23.399Z,72.30
2019-01-31T14:18:53.416Z,72.50
2019-01-31T14:21:21.090Z,72.70
2019-01-31T14:23:49.113Z,72.90
2019-01-31T14:26:17.113Z,73.50
2019-01-31T14:28:45.049Z,74.30
2019-01-31T14:31:13.084Z,72.00
2019-01-31T14:33:41.052Z,70.00
2019-01-31T14:36:09.058Z,68.10
2019-01-31T14:38:37.014Z,66.60
2019-01-31T14:41:05.201Z,66.40
2019-01-31T14:43:33.470Z,65.90
2019-01-31T14:46:01.401Z,65.40
2019-01-31T14:48:29.444Z,64.50
2019-01-31T14:50:57.872Z,63.40
2019-01-31T14:53:25.924Z,63.60
2019-01-31T14:55:55.498Z,63.90
2019-01-31T14:58:23.601Z,63.70
2019-01-31T15:00:51.585Z,63.70
2019-01-31T15:03:20.085Z,64.00
2019-01-31T15:05:48.333Z,64.10
2019-01-31T15:08:16.239Z,63.90
2019-01-31T15:10:45.895Z,64.30
2019-01-31T15:13:14.111Z,65.30
2019-01-31T15:15:42.157Z,66.00
2019-01-31T15:18:10.956Z,66.80
2019-01-31T15:20:40.333Z,68.00
2019-01-31T15:23:08.286Z,69.60
2019-01-31T15:25:36.330Z,71.30
2019-01-31T15:28:04.400Z,72.40
2019-01-31T15:30:33.225Z,73.60
2019-01-31T15:33:01.716Z,75.40
2019-01-31T15:35:29.801Z,77.10
2019-01-31T15:37:57.739Z,77.70
2019-01-31T15:40:27.426Z,78.30
2019-01-31T15:42:55.480Z,79.90
2019-01-31T15:45:23.659Z,79.40
2019-01-31T15:47:51.608Z,79.30
2019-01-31T15:50:19.572Z,78.90
2019-01-31T15:52:47.653Z,79.40
2019-01-31T15:55:16.555Z,79.90
2019-01-31T15:57:44.856Z,81.10
2019-01-31T16:00:17.433Z,82.40
2019-01-31T16:02:45.417Z,83.40
2019-01-31T16:05:19.111Z,83.70
2019-01-31T16:07:43.174Z,84.10
2019-01-31T16:10:11.164Z,85.40
2019-01-31T16:12:39.272Z,85.50
2019-01-31T16:15:08.683Z,85.70
2019-01-31T16:17:37.112Z,86.70
2019-01-31T16:20:05.596Z,87.00
2019-01-31T16:22:34.098Z,87.70
2019-01-31T16:25:01.979Z,88.00
2019-01-31T16:27:30.047Z,88.80
2019-01-31T16:29:58.352Z,89.30
2019-01-31T16:32:28.046Z,87.30
2019-01-31T16:34:55.945Z,86.30
2019-01-31T16:37:24.248Z,86.80
2019-01-31T16:39:52.208Z,86.70
2019-01-31T16:42:20.303Z,87.50
2019-01-31T16:44:48.377Z,88.50
2019-01-31T16:47:16.453Z,89.40
2019-01-31T16:49:44.391Z,89.60
2019-01-31T16:52:12.372Z,89.30
2019-01-31T16:54:40.347Z,89.90
2019-01-31T16:57:08.600Z,90.20
2019-01-31T16:59:36.580Z,90.60
2019-01-31T17:02:05.365Z,90.80
2019-01-31T17:04:34.424Z,90.40
2019-01-31T17:07:02.945Z,90.00
2019-01-31T17:09:30.941Z,90.30
2019-01-31T17:11:58.931Z,90.10
2019-01-31T17:14:30.269Z,90.40
2019-01-31T17:16:58.198Z,90.70
2019-01-31T17:19:26.640Z,91.00
2019-01-31T17:21:54.622Z,91.50
2019-01-31T17:24:23.022Z,91.50
2019-01-31T17:26:51.768Z,92.50
2019-01-31T17:29:19.724Z,92.30
2019-01-31T17:31:47.661Z,92.20
2019-01-31T17:34:15.731Z,92.40
2019-01-31T17:36:45.973Z,92.60
2019-01-31T17:39:13.672Z,93.20
2019-01-31T17:41:41.600Z,93.50
2019-01-31T17:44:09.554Z,93.70
2019-01-31T17:46:37.517Z,93.70
2019-01-31T17:49:05.814Z,93.70
2019-01-31T17:51:34.088Z,93.80
2019-01-31T17:54:02.045Z,93.50
2019-01-31T17:56:30.422Z,93.20
2019-01-31T17:58:58.306Z,93.00
2019-01-31T18:01:26.336Z,92.90
2019-01-31T18:03:54.541Z,92.60
2019-01-31T18:06:23.553Z,93.00
2019-01-31T18:08:51.580Z,92.70
2019-01-31T18:11:22.082Z,92.90
2019-01-31T18:13:52.602Z,92.20
2019-01-31T18:16:19.841Z,92.30
2019-01-31T18:18:48.032Z,92.10
2019-01-31T18:21:18.927Z,92.00
2019-01-31T18:23:46.884Z,91.90
2019-01-31T18:26:15.048Z,91.70
2019-01-31T18:28:43.377Z,91.70
2019-01-31T18:31:13.004Z,91.80
2019-01-31T18:33:41.301Z,91.70
2019-01-31T18:36:09.343Z,91.60
2019-01-31T18:38:37.296Z,91.60
2019-01-31T18:41:05.603Z,91.70
2019-01-31T18:43:34.059Z,91.70
2019-01-31T18:46:02.732Z,91.70
2019-01-31T18:48:30.748Z,91.40
2019-01-31T18:50:58.738Z,91.20
2019-01-31T18:53:27.062Z,90.90
2019-01-31T18:55:55.377Z,90.70
2019-01-31T18:58:23.482Z,90.60
2019-01-31T19:00:51.566Z,90.60
2019-01-31T19:03:20.040Z,90.40
2019-01-31T19:05:48.161Z,90.20
2019-01-31T19:08:16.457Z,90.30
2019-01-31T19:10:44.834Z,90.30
2019-01-31T19:13:12.871Z,90.20
2019-01-31T19:15:40.875Z,90.10
2019-01-31T19:18:09.225Z,89.80
2019-01-31T19:20:37.267Z,89.70
2019-01-31T19:23:06.001Z,89.50
2019-01-31T19:25:34.230Z,89.70
2019-01-31T19:28:02.364Z,89.50
2019-01-31T19:30:31.545Z,89.30
2019-01-31T19:32:59.497Z,89.30
2019-01-31T19:35:27.521Z,89.40
2019-01-31T19:38:02.264Z,89.50
2019-01-31T19:40:27.536Z,90.00
2019-01-31T19:42:55.601Z,90.20
2019-01-31T19:45:25.192Z,90.20
2019-01-31T19:47:53.133Z,90.40
2019-01-31T19:50:21.164Z,90.50
2019-01-31T19:52:49.215Z,90.20
2019-01-31T19:55:17.185Z,90.10
2019-01-31T19:57:45.478Z,90.40
2019-01-31T20:00:15.873Z,90.30
2019-01-31T20:02:44.137Z,90.00
2019-01-31T20:05:12.266Z,89.80
2019-01-31T20:07:40.659Z,89.50
2019-01-31T20:10:10.537Z,89.10
2019-01-31T20:12:38.744Z,89.00
2019-01-31T20:15:07.441Z,89.20
2019-01-31T20:17:35.417Z,89.30
2019-01-31T20:20:04.641Z,89.50
2019-01-31T20:22:32.645Z,89.90
2019-01-31T20:25:00.573Z,90.30
2019-01-31T20:27:29.194Z,90.50
2019-01-31T20:29:57.272Z,90.60
2019-01-31T20:32:25.645Z,90.70
2019-01-31T20:34:53.542Z,90.90
2019-01-31T20:37:21.873Z,90.90
2019-01-31T20:39:50.066Z,91.00
2019-01-31T20:42:17.973Z,90.80
2019-01-31T20:44:46.033Z,91.00
2019-01-31T20:47:15.784Z,91.00
2019-01-31T20:49:43.835Z,90.90
2019-01-31T20:52:11.955Z,90.90
2019-01-31T20:54:39.937Z,91.00
2019-01-31T20:57:08.461Z,91.10
2019-01-31T20:59:36.433Z,91.20
2019-01-31T21:02:04.480Z,91.20
2019-01-31T21:04:32.461Z,91.20
2019-01-31T21:07:00.535Z,91.30
2019-01-31T21:09:28.789Z,91.40
2019-01-31T21:11:57.080Z,91.50
2019-01-31T21:14:25.037Z,91.60
2019-01-31T21:16:53.013Z,91.40
2019-01-31T21:19:21.000Z,91.20
2019-01-31T21:21:49.056Z,91.20
2019-01-31T21:24:17.243Z,91.20
2019-01-31T21:26:45.436Z,91.30
2019-01-31T21:29:13.408Z,91.40
2019-01-31T21:31:41.415Z,91.50
2019-01-31T21:34:09.282Z,91.70
2019-01-31T21:36:37.578Z,92.00
2019-01-31T21:39:07.832Z,92.20
2019-01-31T21:41:35.830Z,92.40
2019-01-31T21:44:03.844Z,92.50
2019-01-31T21:46:31.732Z,92.70
2019-01-31T21:48:59.605Z,92.40
2019-01-31T21:51:27.528Z,92.50
2019-01-31T21:53:55.484Z,92.70
2019-01-31T21:56:23.496Z,93.00
2019-01-31T21:58:51.578Z,93.00
2019-01-31T22:01:20.778Z,92.90
2019-01-31T22:03:48.678Z,93.00
2019-01-31T22:06:22.779Z,92.80
2019-01-31T22:08:46.268Z,92.60
2019-01-31T22:11:14.165Z,92.10
2019-01-31T22:13:42.228Z,91.90
2019-01-31T22:16:10.138Z,92.20
2019-01-31T22:18:38.026Z,91.90
2019-01-31T22:21:06.026Z,92.20
2019-01-31T22:23:34.036Z,92.30
2019-01-31T22:26:01.921Z,92.50
2019-01-31T22:28:30.126Z,92.60
2019-01-31T22:30:58.000Z,92.50
2019-01-31T22:33:25.889Z,92.50
2019-01-31T22:35:54.189Z,92.60
2019-01-31T22:38:22.070Z,92.90
2019-01-31T22:40:50.048Z,93.00
2019-01-31T22:43:18.305Z,93.00
2019-01-31T22:45:46.189Z,92.80
2019-01-31T22:48:14.116Z,92.70
2019-01-31T22:50:42.015Z,92.70
2019-01-31T22:53:09.908Z,92.80
2019-01-31T22:55:37.980Z,92.70
2019-01-31T22:58:06.232Z,92.80
2019-01-31T23:00:56.440Z,92.80
2019-01-31T23:03:24.420Z,92.90
2019-01-31T23:05:52.304Z,93.00
2019-01-31T23:08:20.293Z,93.00
2019-01-31T23:10:48.474Z,93.20
2019-01-31T23:13:16.427Z,93.30
2019-01-31T23:15:44.413Z,93.30
2019-01-31T23:18:12.363Z,93.20
2019-01-31T23:20:40.385Z,93.20
2019-01-31T23:23:08.649Z,93.00
2019-01-31T23:25:40.186Z,92.80
2019-01-31T23:28:07.110Z,92.70
2019-01-31T23:30:35.136Z,92.60
2019-01-31T23:33:03.292Z,92.40
2019-01-31T23:35:31.460Z,92.20
2019-01-31T23:37:59.397Z,92.10
2019-01-31T23:40:27.302Z,92.10
2019-01-31T23:42:55.288Z,92.00
2019-01-31T23:45:24.688Z,92.00
2019-01-31T23:47:52.600Z,92.00
2019-01-31T23:50:20.552Z,92.10
2019-01-31T23:52:48.431Z,92.10
2019-01-31T23:55:16.405Z,92.30
2019-01-31T23:57:44.383Z,92.60
